sensor_id;sensor_type;location;lat;lon;timestamp;temperature;humidity
54954;DHT22;40855;51.072;5.402;2022-11-04T00:01:58;12.30;99.90
54954;DHT22;40855;51.072;5.402;2022-11-04T00:04:25;12.20;99.90
54954;DHT22;40855;51.072;5.402;2022-11-04T00:06:52;12.20;99.90
54954;DHT22;40855;51.072;5.402;2022-11-04T00:09:20;12.20;99.90
54954;DHT22;40855;51.072;5.402;2022-11-04T00:11:47;12.20;99.90
54954;DHT22;40855;51.072;5.402;2022-11-04T00:14:33;12.10;99.90
54954;DHT22;40855;51.072;5.402;2022-11-04T00:16:59;12.10;99.90
54954;DHT22;40855;51.072;5.402;2022-11-04T00:19:44;12.10;99.90
54954;DHT22;40855;51.072;5.402;2022-11-04T00:22:29;12.10;99.90
54954;DHT22;40855;51.072;5.402;2022-11-04T00:25:13;12.00;99.90
54954;DHT22;40855;51.072;5.402;2022-11-04T00:28:05;12.00;99.90
54954;DHT22;40855;51.072;5.402;2022-11-04T00:30:53;12.00;99.90
54954;DHT22;40855;51.072;5.402;2022-11-04T00:33:19;12.00;99.90
54954;DHT22;40855;51.072;5.402;2022-11-04T00:35:55;11.90;99.90
54954;DHT22;40855;51.072;5.402;2022-11-04T00:38:22;11.90;99.90
54954;DHT22;40855;51.072;5.402;2022-11-04T00:40:48;11.90;99.90
54954;DHT22;40855;51.072;5.402;2022-11-04T00:43:14;11.90;99.90
54954;DHT22;40855;51.072;5.402;2022-11-04T00:45:42;11.80;99.90
54954;DHT22;40855;51.072;5.402;2022-11-04T00:48:08;11.80;99.90
54954;DHT22;40855;51.072;5.402;2022-11-04T00:50:34;11.80;99.90
54954;DHT22;40855;51.072;5.402;2022-11-04T00:53:00;11.80;99.90
54954;DHT22;40855;51.072;5.402;2022-11-04T00:55:27;11.80;99.90
54954;DHT22;40855;51.072;5.402;2022-11-04T00:57:53;11.70;99.90
54954;DHT22;40855;51.072;5.402;2022-11-04T01:00:19;11.70;99.90
54954;DHT22;40855;51.072;5.402;2022-11-04T01:02:45;11.80;99.90
54954;DHT22;40855;51.072;5.402;2022-11-04T01:05:11;11.70;99.90
54954;DHT22;40855;51.072;5.402;2022-11-04T01:07:37;11.70;99.90
54954;DHT22;40855;51.072;5.402;2022-11-04T01:10:04;11.70;99.90
54954;DHT22;40855;51.072;5.402;2022-11-04T01:12:30;11.70;99.90
54954;DHT22;40855;51.072;5.402;2022-11-04T01:14:56;11.70;99.90
54954;DHT22;40855;51.072;5.402;2022-11-04T01:17:22;11.70;99.90
54954;DHT22;40855;51.072;5.402;2022-11-04T01:19:48;11.60;99.90
54954;DHT22;40855;51.072;5.402;2022-11-04T01:22:16;11.60;99.90
54954;DHT22;40855;51.072;5.402;2022-11-04T01:24:42;11.60;99.90
54954;DHT22;40855;51.072;5.402;2022-11-04T01:27:09;11.60;99.90
54954;DHT22;40855;51.072;5.402;2022-11-04T01:29:34;11.60;99.90
54954;DHT22;40855;51.072;5.402;2022-11-04T01:32:00;11.60;99.90
54954;DHT22;40855;51.072;5.402;2022-11-04T01:34:26;11.50;99.90
54954;DHT22;40855;51.072;5.402;2022-11-04T01:36:51;11.50;99.90
54954;DHT22;40855;51.072;5.402;2022-11-04T01:39:17;11.50;99.90
54954;DHT22;40855;51.072;5.402;2022-11-04T01:41:42;11.50;99.90
54954;DHT22;40855;51.072;5.402;2022-11-04T01:47:18;11.50;99.90
54954;DHT22;40855;51.072;5.402;2022-11-04T01:49:47;11.40;99.90
54954;DHT22;40855;51.072;5.402;2022-11-04T01:52:17;11.40;99.90
54954;DHT22;40855;51.072;5.402;2022-11-04T01:54:47;11.40;99.90
54954;DHT22;40855;51.072;5.402;2022-11-04T01:57:18;11.40;99.90
54954;DHT22;40855;51.072;5.402;2022-11-04T01:59:44;11.40;99.90
54954;DHT22;40855;51.072;5.402;2022-11-04T02:02:10;11.40;99.90
54954;DHT22;40855;51.072;5.402;2022-11-04T02:04:38;11.30;99.90
54954;DHT22;40855;51.072;5.402;2022-11-04T02:07:06;11.30;99.90
54954;DHT22;40855;51.072;5.402;2022-11-04T02:09:35;11.30;99.90
54954;DHT22;40855;51.072;5.402;2022-11-04T02:12:01;11.30;99.90
54954;DHT22;40855;51.072;5.402;2022-11-04T02:14:47;11.30;99.90
54954;DHT22;40855;51.072;5.402;2022-11-04T02:20:00;11.30;99.90
54954;DHT22;40855;51.072;5.402;2022-11-04T02:30:47;11.20;99.90
54954;DHT22;40855;51.072;5.402;2022-11-04T02:39:22;11.20;99.90
54954;DHT22;40855;51.072;5.402;2022-11-04T02:42:07;11.20;99.90
54954;DHT22;40855;51.072;5.402;2022-11-04T02:44:37;11.20;99.90
54954;DHT22;40855;51.072;5.402;2022-11-04T02:47:06;11.20;99.90
54954;DHT22;40855;51.072;5.402;2022-11-04T02:52:09;11.20;99.90
54954;DHT22;40855;51.072;5.402;2022-11-04T02:54:46;11.20;99.90
54954;DHT22;40855;51.072;5.402;2022-11-04T02:57:17;11.20;99.90
54954;DHT22;40855;51.072;5.402;2022-11-04T03:02:23;11.20;99.90
54954;DHT22;40855;51.072;5.402;2022-11-04T03:04:51;11.20;99.90
54954;DHT22;40855;51.072;5.402;2022-11-04T03:07:23;11.20;99.90
54954;DHT22;40855;51.072;5.402;2022-11-04T03:09:54;11.20;99.90
54954;DHT22;40855;51.072;5.402;2022-11-04T03:12:34;11.20;99.90
54954;DHT22;40855;51.072;5.402;2022-11-04T03:15:06;11.20;99.90
54954;DHT22;40855;51.072;5.402;2022-11-04T03:17:45;11.20;99.90
54954;DHT22;40855;51.072;5.402;2022-11-04T03:20:19;11.20;99.90
54954;DHT22;40855;51.072;5.402;2022-11-04T03:22:45;11.20;99.90
54954;DHT22;40855;51.072;5.402;2022-11-04T03:25:11;11.20;99.90
54954;DHT22;40855;51.072;5.402;2022-11-04T03:27:53;11.20;99.90
54954;DHT22;40855;51.072;5.402;2022-11-04T03:30:23;11.10;99.90
54954;DHT22;40855;51.072;5.402;2022-11-04T03:32:57;11.10;99.90
54954;DHT22;40855;51.072;5.402;2022-11-04T03:35:25;11.00;99.90
54954;DHT22;40855;51.072;5.402;2022-11-04T03:37:52;11.00;99.90
54954;DHT22;40855;51.072;5.402;2022-11-04T03:40:20;11.00;99.90
54954;DHT22;40855;51.072;5.402;2022-11-04T03:42:52;11.00;99.90
54954;DHT22;40855;51.072;5.402;2022-11-04T03:45:22;11.00;99.90
54954;DHT22;40855;51.072;5.402;2022-11-04T03:47:48;11.00;99.90
54954;DHT22;40855;51.072;5.402;2022-11-04T03:50:24;11.00;99.90
54954;DHT22;40855;51.072;5.402;2022-11-04T03:52:51;11.00;99.90
54954;DHT22;40855;51.072;5.402;2022-11-04T03:55:16;10.90;99.90
54954;DHT22;40855;51.072;5.402;2022-11-04T03:57:56;10.90;99.90
54954;DHT22;40855;51.072;5.402;2022-11-04T04:00:28;10.90;99.90
54954;DHT22;40855;51.072;5.402;2022-11-04T04:05:29;10.90;99.90
54954;DHT22;40855;51.072;5.402;2022-11-04T04:16:12;10.70;99.90
54954;DHT22;40855;51.072;5.402;2022-11-04T04:18:44;10.70;99.90
54954;DHT22;40855;51.072;5.402;2022-11-04T04:21:17;10.70;99.90
54954;DHT22;40855;51.072;5.402;2022-11-04T04:23:44;10.70;99.90
54954;DHT22;40855;51.072;5.402;2022-11-04T04:26:29;10.70;99.90
54954;DHT22;40855;51.072;5.402;2022-11-04T04:29:16;10.70;99.90
54954;DHT22;40855;51.072;5.402;2022-11-04T04:31:42;10.70;99.90
54954;DHT22;40855;51.072;5.402;2022-11-04T04:34:19;10.70;99.90
54954;DHT22;40855;51.072;5.402;2022-11-04T04:36:57;10.70;99.90
54954;DHT22;40855;51.072;5.402;2022-11-04T04:39:31;10.70;99.90
54954;DHT22;40855;51.072;5.402;2022-11-04T04:42:17;10.70;99.90
54954;DHT22;40855;51.072;5.402;2022-11-04T04:45:03;10.60;99.90
54954;DHT22;40855;51.072;5.402;2022-11-04T04:47:39;10.60;99.90
54954;DHT22;40855;51.072;5.402;2022-11-04T04:50:06;10.60;99.90
54954;DHT22;40855;51.072;5.402;2022-11-04T04:52:37;10.50;99.90
54954;DHT22;40855;51.072;5.402;2022-11-04T04:55:03;10.60;99.90
54954;DHT22;40855;51.072;5.402;2022-11-04T04:57:29;10.50;99.90
54954;DHT22;40855;51.072;5.402;2022-11-04T04:59:55;10.60;99.90
54954;DHT22;40855;51.072;5.402;2022-11-04T05:02:21;10.60;99.90
54954;DHT22;40855;51.072;5.402;2022-11-04T05:04:46;10.60;99.90
54954;DHT22;40855;51.072;5.402;2022-11-04T05:07:12;10.60;99.90
54954;DHT22;40855;51.072;5.402;2022-11-04T05:09:38;10.60;99.90
54954;DHT22;40855;51.072;5.402;2022-11-04T05:12:03;10.60;99.90
54954;DHT22;40855;51.072;5.402;2022-11-04T05:14:29;10.60;99.90
54954;DHT22;40855;51.072;5.402;2022-11-04T05:16:55;10.70;99.90
54954;DHT22;40855;51.072;5.402;2022-11-04T05:19:20;10.70;99.90
54954;DHT22;40855;51.072;5.402;2022-11-04T05:21:46;10.70;99.90
54954;DHT22;40855;51.072;5.402;2022-11-04T05:24:12;10.70;99.90
54954;DHT22;40855;51.072;5.402;2022-11-04T05:26:37;10.70;99.90
54954;DHT22;40855;51.072;5.402;2022-11-04T05:29:03;10.70;99.90
54954;DHT22;40855;51.072;5.402;2022-11-04T05:31:29;10.70;99.90
54954;DHT22;40855;51.072;5.402;2022-11-04T05:33:55;10.80;99.90
54954;DHT22;40855;51.072;5.402;2022-11-04T05:36:21;10.70;99.90
54954;DHT22;40855;51.072;5.402;2022-11-04T05:38:51;10.80;99.90
54954;DHT22;40855;51.072;5.402;2022-11-04T05:41:17;10.80;99.90
54954;DHT22;40855;51.072;5.402;2022-11-04T05:43:57;10.80;99.90
54954;DHT22;40855;51.072;5.402;2022-11-04T05:46:23;10.80;99.90
54954;DHT22;40855;51.072;5.402;2022-11-04T05:48:49;10.80;99.90
54954;DHT22;40855;51.072;5.402;2022-11-04T05:51:18;10.80;99.90
54954;DHT22;40855;51.072;5.402;2022-11-04T05:53:44;10.90;99.90
54954;DHT22;40855;51.072;5.402;2022-11-04T05:56:10;10.80;99.90
54954;DHT22;40855;51.072;5.402;2022-11-04T05:58:35;10.90;99.90
54954;DHT22;40855;51.072;5.402;2022-11-04T06:01:22;10.90;99.90
54954;DHT22;40855;51.072;5.402;2022-11-04T06:03:49;10.90;99.90
54954;DHT22;40855;51.072;5.402;2022-11-04T06:06:14;10.90;99.90
54954;DHT22;40855;51.072;5.402;2022-11-04T06:08:40;10.90;99.90
54954;DHT22;40855;51.072;5.402;2022-11-04T06:11:06;10.90;99.90
54954;DHT22;40855;51.072;5.402;2022-11-04T06:13:32;10.90;99.90
54954;DHT22;40855;51.072;5.402;2022-11-04T06:15:57;10.90;99.90
54954;DHT22;40855;51.072;5.402;2022-11-04T06:18:23;10.90;99.90
54954;DHT22;40855;51.072;5.402;2022-11-04T06:20:49;10.90;99.90
54954;DHT22;40855;51.072;5.402;2022-11-04T06:23:14;10.90;99.90
54954;DHT22;40855;51.072;5.402;2022-11-04T06:25:40;10.90;99.90
54954;DHT22;40855;51.072;5.402;2022-11-04T06:28:06;10.90;99.90
54954;DHT22;40855;51.072;5.402;2022-11-04T06:30:31;10.90;99.90
54954;DHT22;40855;51.072;5.402;2022-11-04T06:32:57;10.90;99.90
54954;DHT22;40855;51.072;5.402;2022-11-04T06:35:22;10.90;99.90
54954;DHT22;40855;51.072;5.402;2022-11-04T06:37:48;10.90;99.90
54954;DHT22;40855;51.072;5.402;2022-11-04T06:40:14;10.90;99.90
54954;DHT22;40855;51.072;5.402;2022-11-04T06:42:39;10.90;99.90
54954;DHT22;40855;51.072;5.402;2022-11-04T06:45:07;10.90;99.90
54954;DHT22;40855;51.072;5.402;2022-11-04T06:47:33;10.90;99.90
54954;DHT22;40855;51.072;5.402;2022-11-04T06:49:58;10.90;99.90
54954;DHT22;40855;51.072;5.402;2022-11-04T06:52:24;10.90;99.90
54954;DHT22;40855;51.072;5.402;2022-11-04T06:54:50;10.90;99.90
54954;DHT22;40855;51.072;5.402;2022-11-04T06:57:15;10.90;99.90
54954;DHT22;40855;51.072;5.402;2022-11-04T06:59:41;10.90;99.90
54954;DHT22;40855;51.072;5.402;2022-11-04T07:02:09;10.90;99.90
54954;DHT22;40855;51.072;5.402;2022-11-04T07:04:36;10.90;99.90
54954;DHT22;40855;51.072;5.402;2022-11-04T07:07:02;10.90;99.90
54954;DHT22;40855;51.072;5.402;2022-11-04T07:09:27;10.90;99.90
54954;DHT22;40855;51.072;5.402;2022-11-04T07:11:53;11.00;99.90
54954;DHT22;40855;51.072;5.402;2022-11-04T07:14:19;10.90;99.90
54954;DHT22;40855;51.072;5.402;2022-11-04T07:16:44;10.90;99.90
54954;DHT22;40855;51.072;5.402;2022-11-04T07:19:10;11.00;99.90
54954;DHT22;40855;51.072;5.402;2022-11-04T07:21:35;11.00;99.90
54954;DHT22;40855;51.072;5.402;2022-11-04T07:24:01;11.00;99.90
54954;DHT22;40855;51.072;5.402;2022-11-04T07:26:27;11.00;99.90
54954;DHT22;40855;51.072;5.402;2022-11-04T07:28:52;11.00;99.90
54954;DHT22;40855;51.072;5.402;2022-11-04T07:31:18;11.10;99.90
54954;DHT22;40855;51.072;5.402;2022-11-04T07:33:44;11.10;99.90
54954;DHT22;40855;51.072;5.402;2022-11-04T07:36:14;11.10;99.90
54954;DHT22;40855;51.072;5.402;2022-11-04T07:38:41;11.10;99.90
54954;DHT22;40855;51.072;5.402;2022-11-04T07:41:08;11.20;99.90
54954;DHT22;40855;51.072;5.402;2022-11-04T07:43:33;11.20;99.90
54954;DHT22;40855;51.072;5.402;2022-11-04T07:46:04;11.30;99.90
54954;DHT22;40855;51.072;5.402;2022-11-04T07:48:30;11.30;99.90
54954;DHT22;40855;51.072;5.402;2022-11-04T07:50:57;11.30;99.90
54954;DHT22;40855;51.072;5.402;2022-11-04T07:53:24;11.30;99.90
54954;DHT22;40855;51.072;5.402;2022-11-04T07:55:50;11.40;99.90
54954;DHT22;40855;51.072;5.402;2022-11-04T07:58:19;11.40;99.90
54954;DHT22;40855;51.072;5.402;2022-11-04T08:00:45;11.40;99.90
54954;DHT22;40855;51.072;5.402;2022-11-04T08:03:11;11.40;99.90
54954;DHT22;40855;51.072;5.402;2022-11-04T08:05:37;11.40;99.90
54954;DHT22;40855;51.072;5.402;2022-11-04T08:08:03;11.50;99.90
54954;DHT22;40855;51.072;5.402;2022-11-04T08:10:29;11.50;99.90
54954;DHT22;40855;51.072;5.402;2022-11-04T08:12:54;11.60;99.90
54954;DHT22;40855;51.072;5.402;2022-11-04T08:15:20;11.60;99.90
54954;DHT22;40855;51.072;5.402;2022-11-04T08:17:46;11.70;99.90
54954;DHT22;40855;51.072;5.402;2022-11-04T08:20:11;11.60;99.90
54954;DHT22;40855;51.072;5.402;2022-11-04T08:22:37;11.70;99.90
54954;DHT22;40855;51.072;5.402;2022-11-04T08:25:03;11.70;99.90
54954;DHT22;40855;51.072;5.402;2022-11-04T08:27:31;11.80;99.90
54954;DHT22;40855;51.072;5.402;2022-11-04T08:29:57;11.80;99.90
54954;DHT22;40855;51.072;5.402;2022-11-04T08:32:22;11.80;99.90
54954;DHT22;40855;51.072;5.402;2022-11-04T08:34:48;11.80;99.90
54954;DHT22;40855;51.072;5.402;2022-11-04T08:37:15;11.90;99.90
54954;DHT22;40855;51.072;5.402;2022-11-04T08:39:41;11.90;99.90
54954;DHT22;40855;51.072;5.402;2022-11-04T08:42:07;11.90;99.90
54954;DHT22;40855;51.072;5.402;2022-11-04T08:44:33;11.90;99.90
54954;DHT22;40855;51.072;5.402;2022-11-04T08:46:59;11.90;99.90
54954;DHT22;40855;51.072;5.402;2022-11-04T08:49:25;12.00;99.90
54954;DHT22;40855;51.072;5.402;2022-11-04T08:51:51;12.00;99.90
54954;DHT22;40855;51.072;5.402;2022-11-04T08:54:25;12.00;99.90
54954;DHT22;40855;51.072;5.402;2022-11-04T08:56:52;12.00;99.90
54954;DHT22;40855;51.072;5.402;2022-11-04T08:59:18;12.00;99.90
54954;DHT22;40855;51.072;5.402;2022-11-04T09:01:44;12.00;99.90
54954;DHT22;40855;51.072;5.402;2022-11-04T09:04:10;12.00;99.90
54954;DHT22;40855;51.072;5.402;2022-11-04T09:06:39;12.00;99.90
54954;DHT22;40855;51.072;5.402;2022-11-04T09:09:07;12.00;99.90
54954;DHT22;40855;51.072;5.402;2022-11-04T09:11:36;12.00;99.90
54954;DHT22;40855;51.072;5.402;2022-11-04T09:14:02;12.10;99.90
54954;DHT22;40855;51.072;5.402;2022-11-04T09:16:29;12.10;99.90
54954;DHT22;40855;51.072;5.402;2022-11-04T09:18:56;12.10;99.90
54954;DHT22;40855;51.072;5.402;2022-11-04T09:21:23;12.20;99.90
54954;DHT22;40855;51.072;5.402;2022-11-04T09:23:49;12.20;99.90
54954;DHT22;40855;51.072;5.402;2022-11-04T09:26:16;12.20;99.90
54954;DHT22;40855;51.072;5.402;2022-11-04T09:28:42;12.20;99.90
54954;DHT22;40855;51.072;5.402;2022-11-04T09:31:10;12.30;99.90
54954;DHT22;40855;51.072;5.402;2022-11-04T09:33:37;12.30;99.90
54954;DHT22;40855;51.072;5.402;2022-11-04T09:36:03;12.30;99.90
54954;DHT22;40855;51.072;5.402;2022-11-04T09:38:29;12.30;99.90
54954;DHT22;40855;51.072;5.402;2022-11-04T09:40:55;12.40;99.90
54954;DHT22;40855;51.072;5.402;2022-11-04T09:45:57;12.40;99.90
54954;DHT22;40855;51.072;5.402;2022-11-04T09:48:49;12.40;99.90
54954;DHT22;40855;51.072;5.402;2022-11-04T09:51:19;12.50;99.90
54954;DHT22;40855;51.072;5.402;2022-11-04T09:53:49;12.40;99.90
54954;DHT22;40855;51.072;5.402;2022-11-04T09:56:19;12.50;99.90
54954;DHT22;40855;51.072;5.402;2022-11-04T09:58:45;12.50;99.90
54954;DHT22;40855;51.072;5.402;2022-11-04T10:04:12;12.60;99.90
54954;DHT22;40855;51.072;5.402;2022-11-04T10:20:44;12.90;99.90
54954;DHT22;40855;51.072;5.402;2022-11-04T10:28:55;12.90;99.90
54954;DHT22;40855;51.072;5.402;2022-11-04T10:31:22;12.90;99.90
54954;DHT22;40855;51.072;5.402;2022-11-04T10:34:03;13.00;99.90
54954;DHT22;40855;51.072;5.402;2022-11-04T10:36:30;13.00;99.90
54954;DHT22;40855;51.072;5.402;2022-11-04T10:38:56;13.00;99.90
54954;DHT22;40855;51.072;5.402;2022-11-04T10:43:51;13.00;99.90
54954;DHT22;40855;51.072;5.402;2022-11-04T10:51:39;13.20;99.90
54954;DHT22;40855;51.072;5.402;2022-11-04T10:54:07;13.20;99.90
54954;DHT22;40855;51.072;5.402;2022-11-04T10:56:41;13.20;99.90
54954;DHT22;40855;51.072;5.402;2022-11-04T11:02:02;13.30;99.90
54954;DHT22;40855;51.072;5.402;2022-11-04T11:04:33;13.30;99.90
54954;DHT22;40855;51.072;5.402;2022-11-04T11:07:02;13.30;99.90
54954;DHT22;40855;51.072;5.402;2022-11-04T11:09:33;13.40;99.90
54954;DHT22;40855;51.072;5.402;2022-11-04T11:14:40;13.50;99.90
54954;DHT22;40855;51.072;5.402;2022-11-04T11:19:54;13.60;99.90
54954;DHT22;40855;51.072;5.402;2022-11-04T11:22:38;13.60;99.90
54954;DHT22;40855;51.072;5.402;2022-11-04T11:28:11;13.70;99.90
54954;DHT22;40855;51.072;5.402;2022-11-04T11:30:53;13.60;99.90
54954;DHT22;40855;51.072;5.402;2022-11-04T11:33:30;13.50;99.90
54954;DHT22;40855;51.072;5.402;2022-11-04T11:36:13;13.40;99.90
54954;DHT22;40855;51.072;5.402;2022-11-04T11:39:12;13.40;99.90
54954;DHT22;40855;51.072;5.402;2022-11-04T11:42:06;13.30;99.90
54954;DHT22;40855;51.072;5.402;2022-11-04T11:44:36;13.20;99.90
54954;DHT22;40855;51.072;5.402;2022-11-04T11:49:45;13.30;99.90
54954;DHT22;40855;51.072;5.402;2022-11-04T11:52:32;13.20;99.90
54954;DHT22;40855;51.072;5.402;2022-11-04T12:00:12;13.10;99.90
54954;DHT22;40855;51.072;5.402;2022-11-04T12:08:35;13.00;99.90
54954;DHT22;40855;51.072;5.402;2022-11-04T12:12:18;13.00;99.90
54954;DHT22;40855;51.072;5.402;2022-11-04T12:16:57;13.10;99.90
54954;DHT22;40855;51.072;5.402;2022-11-04T12:19:31;13.10;99.90
54954;DHT22;40855;51.072;5.402;2022-11-04T12:22:16;13.10;99.90
54954;DHT22;40855;51.072;5.402;2022-11-04T12:30:23;13.30;99.90
54954;DHT22;40855;51.072;5.402;2022-11-04T12:41:41;13.50;99.90
54954;DHT22;40855;51.072;5.402;2022-11-04T12:52:54;13.50;99.90
54954;DHT22;40855;51.072;5.402;2022-11-04T13:00:48;13.50;99.90
54954;DHT22;40855;51.072;5.402;2022-11-04T13:03:28;13.50;99.90
54954;DHT22;40855;51.072;5.402;2022-11-04T13:06:01;13.60;99.90
54954;DHT22;40855;51.072;5.402;2022-11-04T13:11:26;13.60;99.90
54954;DHT22;40855;51.072;5.402;2022-11-04T13:14:15;13.60;99.90
54954;DHT22;40855;51.072;5.402;2022-11-04T13:16:46;13.60;99.90
54954;DHT22;40855;51.072;5.402;2022-11-04T13:19:29;13.60;99.90
54954;DHT22;40855;51.072;5.402;2022-11-04T13:21:57;13.70;99.90
54954;DHT22;40855;51.072;5.402;2022-11-04T13:24:29;13.70;99.90
54954;DHT22;40855;51.072;5.402;2022-11-04T13:27:03;13.70;99.90
54954;DHT22;40855;51.072;5.402;2022-11-04T13:29:31;13.70;99.90
54954;DHT22;40855;51.072;5.402;2022-11-04T13:39:56;13.70;99.90
54954;DHT22;40855;51.072;5.402;2022-11-04T13:45:16;13.80;99.90
54954;DHT22;40855;51.072;5.402;2022-11-04T13:47:49;13.80;99.90
54954;DHT22;40855;51.072;5.402;2022-11-04T13:50:37;13.80;99.90
54954;DHT22;40855;51.072;5.402;2022-11-04T13:53:05;13.80;99.90
54954;DHT22;40855;51.072;5.402;2022-11-04T13:55:34;13.80;99.90
54954;DHT22;40855;51.072;5.402;2022-11-04T13:58:02;13.80;99.90
54954;DHT22;40855;51.072;5.402;2022-11-04T14:00:32;13.80;99.90
54954;DHT22;40855;51.072;5.402;2022-11-04T14:03:00;13.90;99.90
54954;DHT22;40855;51.072;5.402;2022-11-04T14:06:00;13.90;99.90
54954;DHT22;40855;51.072;5.402;2022-11-04T14:08:27;13.90;99.90
54954;DHT22;40855;51.072;5.402;2022-11-04T14:16:05;13.90;99.90
54954;DHT22;40855;51.072;5.402;2022-11-04T14:18:36;13.90;99.90
54954;DHT22;40855;51.072;5.402;2022-11-04T14:21:09;13.90;99.90
54954;DHT22;40855;51.072;5.402;2022-11-04T14:23:37;13.90;99.90
54954;DHT22;40855;51.072;5.402;2022-11-04T14:26:11;13.90;99.90
54954;DHT22;40855;51.072;5.402;2022-11-04T14:28:40;13.90;99.90
54954;DHT22;40855;51.072;5.402;2022-11-04T14:31:09;13.80;99.90
54954;DHT22;40855;51.072;5.402;2022-11-04T14:33:47;13.80;99.90
54954;DHT22;40855;51.072;5.402;2022-11-04T14:44:22;13.80;99.90
54954;DHT22;40855;51.072;5.402;2022-11-04T14:46:54;13.80;99.90
54954;DHT22;40855;51.072;5.402;2022-11-04T14:52:44;13.70;99.90
54954;DHT22;40855;51.072;5.402;2022-11-04T14:55:14;13.70;99.90
54954;DHT22;40855;51.072;5.402;2022-11-04T14:57:48;13.70;99.90
54954;DHT22;40855;51.072;5.402;2022-11-04T15:03:14;13.80;99.90
54954;DHT22;40855;51.072;5.402;2022-11-04T15:05:49;13.80;99.90
54954;DHT22;40855;51.072;5.402;2022-11-04T15:13:26;13.80;99.90
54954;DHT22;40855;51.072;5.402;2022-11-04T15:15:54;13.80;99.90
54954;DHT22;40855;51.072;5.402;2022-11-04T15:18:24;13.80;99.90
54954;DHT22;40855;51.072;5.402;2022-11-04T15:20:59;13.70;99.90
54954;DHT22;40855;51.072;5.402;2022-11-04T15:23:30;13.70;99.90
54954;DHT22;40855;51.072;5.402;2022-11-04T15:25:58;13.80;99.90
54954;DHT22;40855;51.072;5.402;2022-11-04T15:28:25;13.70;99.90
54954;DHT22;40855;51.072;5.402;2022-11-04T15:33:24;13.70;99.90
54954;DHT22;40855;51.072;5.402;2022-11-04T15:35:51;13.70;99.90
54954;DHT22;40855;51.072;5.402;2022-11-04T15:38:17;13.70;99.90
54954;DHT22;40855;51.072;5.402;2022-11-04T15:40:44;13.70;99.90
54954;DHT22;40855;51.072;5.402;2022-11-04T15:43:13;13.70;99.90
54954;DHT22;40855;51.072;5.402;2022-11-04T15:48:32;13.60;99.90
54954;DHT22;40855;51.072;5.402;2022-11-04T15:53:33;13.50;99.90
54954;DHT22;40855;51.072;5.402;2022-11-04T15:56:01;13.40;99.90
54954;DHT22;40855;51.072;5.402;2022-11-04T15:58:27;13.30;99.90
54954;DHT22;40855;51.072;5.402;2022-11-04T16:00:54;13.20;99.90
54954;DHT22;40855;51.072;5.402;2022-11-04T16:03:21;13.10;99.90
54954;DHT22;40855;51.072;5.402;2022-11-04T16:06:05;13.00;99.90
54954;DHT22;40855;51.072;5.402;2022-11-04T16:08:32;12.90;99.90
54954;DHT22;40855;51.072;5.402;2022-11-04T16:11:27;12.80;99.90
54954;DHT22;40855;51.072;5.402;2022-11-04T16:13:53;12.70;99.90
54954;DHT22;40855;51.072;5.402;2022-11-04T16:16:38;12.70;99.90
54954;DHT22;40855;51.072;5.402;2022-11-04T16:19:04;12.70;99.90
54954;DHT22;40855;51.072;5.402;2022-11-04T16:21:33;12.60;99.90
54954;DHT22;40855;51.072;5.402;2022-11-04T16:24:03;12.70;99.90
54954;DHT22;40855;51.072;5.402;2022-11-04T16:26:35;12.70;99.90
54954;DHT22;40855;51.072;5.402;2022-11-04T16:29:06;12.60;99.90
54954;DHT22;40855;51.072;5.402;2022-11-04T16:31:35;12.60;99.90
54954;DHT22;40855;51.072;5.402;2022-11-04T16:34:02;12.50;99.90
54954;DHT22;40855;51.072;5.402;2022-11-04T16:36:28;12.50;99.90
54954;DHT22;40855;51.072;5.402;2022-11-04T16:38:58;12.50;99.90
54954;DHT22;40855;51.072;5.402;2022-11-04T16:41:26;12.50;99.90
54954;DHT22;40855;51.072;5.402;2022-11-04T16:43:52;12.40;99.90
54954;DHT22;40855;51.072;5.402;2022-11-04T16:46:18;12.40;99.90
54954;DHT22;40855;51.072;5.402;2022-11-04T16:48:44;12.40;99.90
54954;DHT22;40855;51.072;5.402;2022-11-04T16:51:19;12.40;99.90
54954;DHT22;40855;51.072;5.402;2022-11-04T16:53:49;12.40;99.90
54954;DHT22;40855;51.072;5.402;2022-11-04T16:56:17;12.40;99.90
54954;DHT22;40855;51.072;5.402;2022-11-04T16:58:43;12.40;99.90
54954;DHT22;40855;51.072;5.402;2022-11-04T17:01:13;12.30;99.90
54954;DHT22;40855;51.072;5.402;2022-11-04T17:03:40;12.30;99.90
54954;DHT22;40855;51.072;5.402;2022-11-04T17:06:08;12.30;99.90
54954;DHT22;40855;51.072;5.402;2022-11-04T17:08:34;12.30;99.90
54954;DHT22;40855;51.072;5.402;2022-11-04T17:11:00;12.30;99.90
54954;DHT22;40855;51.072;5.402;2022-11-04T17:13:26;12.30;99.90
54954;DHT22;40855;51.072;5.402;2022-11-04T17:15:51;12.30;99.90
54954;DHT22;40855;51.072;5.402;2022-11-04T17:18:17;12.20;99.90
54954;DHT22;40855;51.072;5.402;2022-11-04T17:20:46;12.20;99.90
54954;DHT22;40855;51.072;5.402;2022-11-04T17:23:14;12.20;99.90
54954;DHT22;40855;51.072;5.402;2022-11-04T17:25:40;12.10;99.90
54954;DHT22;40855;51.072;5.402;2022-11-04T17:28:06;12.10;99.90
54954;DHT22;40855;51.072;5.402;2022-11-04T17:30:32;12.10;99.90
54954;DHT22;40855;51.072;5.402;2022-11-04T17:32:58;12.00;99.90
54954;DHT22;40855;51.072;5.402;2022-11-04T17:35:24;12.00;99.90
54954;DHT22;40855;51.072;5.402;2022-11-04T17:37:52;11.90;99.90
54954;DHT22;40855;51.072;5.402;2022-11-04T17:40:19;11.90;99.90
54954;DHT22;40855;51.072;5.402;2022-11-04T17:42:46;11.90;99.90
54954;DHT22;40855;51.072;5.402;2022-11-04T17:45:30;11.80;99.90
54954;DHT22;40855;51.072;5.402;2022-11-04T17:47:56;11.70;99.90
54954;DHT22;40855;51.072;5.402;2022-11-04T17:50:22;11.70;99.90
54954;DHT22;40855;51.072;5.402;2022-11-04T17:52:48;11.70;99.90
54954;DHT22;40855;51.072;5.402;2022-11-04T17:55:14;11.60;99.90
54954;DHT22;40855;51.072;5.402;2022-11-04T17:57:40;11.60;99.90
54954;DHT22;40855;51.072;5.402;2022-11-04T18:00:06;11.60;99.90
54954;DHT22;40855;51.072;5.402;2022-11-04T18:02:32;11.60;99.90
54954;DHT22;40855;51.072;5.402;2022-11-04T18:04:58;11.60;99.90
54954;DHT22;40855;51.072;5.402;2022-11-04T18:07:26;11.50;99.90
54954;DHT22;40855;51.072;5.402;2022-11-04T18:09:52;11.50;99.90
54954;DHT22;40855;51.072;5.402;2022-11-04T18:12:18;11.50;99.90
54954;DHT22;40855;51.072;5.402;2022-11-04T18:15:10;11.50;99.90
54954;DHT22;40855;51.072;5.402;2022-11-04T18:17:41;11.50;99.90
54954;DHT22;40855;51.072;5.402;2022-11-04T18:20:09;11.50;99.90
54954;DHT22;40855;51.072;5.402;2022-11-04T18:22:36;11.50;99.90
54954;DHT22;40855;51.072;5.402;2022-11-04T18:25:04;11.50;99.90
54954;DHT22;40855;51.072;5.402;2022-11-04T18:27:30;11.50;99.90
54954;DHT22;40855;51.072;5.402;2022-11-04T18:29:55;11.50;99.90
54954;DHT22;40855;51.072;5.402;2022-11-04T18:32:21;11.50;99.90
54954;DHT22;40855;51.072;5.402;2022-11-04T18:34:48;11.50;99.90
54954;DHT22;40855;51.072;5.402;2022-11-04T18:37:15;11.50;99.90